Chany, Russia
Current Conditions -  °F | °C
As of 8:00 PM on Friday 19 Dec 2014 (Local Time) from UNOO Reporting Station
Haze Haze  
Wind Chill: -14°   Ceiling: 20000
Heat Index: -4°   Visibility: 2.5mi
Dew Point: -8°   Wind: 4mph
Humidity: 85%   Direction: 170°S
Pressure: 30.45"   Gusts: NA
Location:  55.31°N, 76.75°E
Report Text: UNOO 191300Z 17002MPS 4000 BR BKN200 M20/M22 Q1031 25820550NOSIG RMK QFE765
Loading
Personal Weather Stations






























Interactive Weather Map New forecast layout! Learn more

10-Day Weather Forecast

Advertisements
Track Severe Weather on mobile